sensor_id;sensor_type;location;lat;lon;timestamp;P1;durP1;ratioP1;P2;durP2;ratioP2
27746;SDS011;15138;51.012;4.692;2024-03-22T00:01:57;74.63;;;35.10;;
27746;SDS011;15138;51.012;4.692;2024-03-22T00:04:25;68.53;;;31.30;;
27746;SDS011;15138;51.012;4.692;2024-03-22T00:06:53;75.40;;;34.58;;
27746;SDS011;15138;51.012;4.692;2024-03-22T00:09:19;54.65;;;26.55;;
27746;SDS011;15138;51.012;4.692;2024-03-22T00:11:47;71.20;;;35.42;;
27746;SDS011;15138;51.012;4.692;2024-03-22T00:14:13;70.03;;;34.45;;
27746;SDS011;15138;51.012;4.692;2024-03-22T00:16:40;80.07;;;37.10;;
27746;SDS011;15138;51.012;4.692;2024-03-22T00:19:07;73.65;;;33.63;;
27746;SDS011;15138;51.012;4.692;2024-03-22T00:21:36;69.45;;;34.72;;
27746;SDS011;15138;51.012;4.692;2024-03-22T00:24:02;70.45;;;32.55;;
27746;SDS011;15138;51.012;4.692;2024-03-22T00:26:30;54.92;;;27.35;;
27746;SDS011;15138;51.012;4.692;2024-03-22T00:28:56;50.85;;;25.33;;
27746;SDS011;15138;51.012;4.692;2024-03-22T00:31:24;69.75;;;34.38;;
27746;SDS011;15138;51.012;4.692;2024-03-22T00:33:50;73.53;;;35.53;;
27746;SDS011;15138;51.012;4.692;2024-03-22T00:36:18;76.82;;;35.70;;
27746;SDS011;15138;51.012;4.692;2024-03-22T00:38:46;74.13;;;34.13;;
27746;SDS011;15138;51.012;4.692;2024-03-22T00:41:13;70.93;;;35.45;;
27746;SDS011;15138;51.012;4.692;2024-03-22T00:43:40;68.35;;;30.95;;
27746;SDS011;15138;51.012;4.692;2024-03-22T00:46:07;72.35;;;36.28;;
27746;SDS011;15138;51.012;4.692;2024-03-22T00:48:34;75.00;;;36.67;;
27746;SDS011;15138;51.012;4.692;2024-03-22T00:51:01;71.72;;;35.22;;
27746;SDS011;15138;51.012;4.692;2024-03-22T00:53:28;72.18;;;34.20;;
27746;SDS011;15138;51.012;4.692;2024-03-22T00:55:57;56.35;;;28.75;;
27746;SDS011;15138;51.012;4.692;2024-03-22T00:58:25;65.22;;;31.17;;
27746;SDS011;15138;51.012;4.692;2024-03-22T01:00:53;68.13;;;33.13;;
27746;SDS011;15138;51.012;4.692;2024-03-22T01:03:19;69.93;;;33.70;;
27746;SDS011;15138;51.012;4.692;2024-03-22T01:05:47;46.65;;;24.48;;
27746;SDS011;15138;51.012;4.692;2024-03-22T01:08:13;71.28;;;33.72;;
27746;SDS011;15138;51.012;4.692;2024-03-22T01:10:41;69.03;;;32.78;;
27746;SDS011;15138;51.012;4.692;2024-03-22T01:13:09;68.45;;;33.97;;
27746;SDS011;15138;51.012;4.692;2024-03-22T01:15:36;74.15;;;35.15;;
27746;SDS011;15138;51.012;4.692;2024-03-22T01:18:03;61.45;;;31.38;;
27746;SDS011;15138;51.012;4.692;2024-03-22T01:20:30;63.95;;;32.13;;
27746;SDS011;15138;51.012;4.692;2024-03-22T01:22:58;67.28;;;31.52;;
27746;SDS011;15138;51.012;4.692;2024-03-22T01:25:26;66.07;;;30.63;;
27746;SDS011;15138;51.012;4.692;2024-03-22T01:27:53;62.38;;;30.77;;
27746;SDS011;15138;51.012;4.692;2024-03-22T01:30:22;67.30;;;31.35;;
27746;SDS011;15138;51.012;4.692;2024-03-22T01:32:48;61.03;;;28.80;;
27746;SDS011;15138;51.012;4.692;2024-03-22T01:35:16;58.53;;;27.55;;
27746;SDS011;15138;51.012;4.692;2024-03-22T01:37:42;48.33;;;25.38;;
27746;SDS011;15138;51.012;4.692;2024-03-22T01:40:10;50.67;;;25.80;;
27746;SDS011;15138;51.012;4.692;2024-03-22T01:42:37;52.05;;;25.85;;
27746;SDS011;15138;51.012;4.692;2024-03-22T01:45:04;32.08;;;17.30;;
27746;SDS011;15138;51.012;4.692;2024-03-22T01:47:32;46.42;;;24.02;;
27746;SDS011;15138;51.012;4.692;2024-03-22T01:50:00;43.28;;;23.52;;
27746;SDS011;15138;51.012;4.692;2024-03-22T01:52:27;45.42;;;25.17;;
27746;SDS011;15138;51.012;4.692;2024-03-22T01:54:55;45.03;;;23.30;;
27746;SDS011;15138;51.012;4.692;2024-03-22T01:57:21;43.00;;;23.20;;
27746;SDS011;15138;51.012;4.692;2024-03-22T01:59:49;42.20;;;21.77;;
27746;SDS011;15138;51.012;4.692;2024-03-22T02:02:15;44.05;;;23.88;;
27746;SDS011;15138;51.012;4.692;2024-03-22T02:04:44;42.67;;;23.23;;
27746;SDS011;15138;51.012;4.692;2024-03-22T02:07:11;45.15;;;24.30;;
27746;SDS011;15138;51.012;4.692;2024-03-22T02:09:38;43.08;;;23.23;;
27746;SDS011;15138;51.012;4.692;2024-03-22T02:12:05;43.85;;;22.52;;
27746;SDS011;15138;51.012;4.692;2024-03-22T02:14:32;42.40;;;23.13;;
27746;SDS011;15138;51.012;4.692;2024-03-22T02:16:58;44.50;;;25.25;;
27746;SDS011;15138;51.012;4.692;2024-03-22T02:19:26;36.00;;;20.02;;
27746;SDS011;15138;51.012;4.692;2024-03-22T02:21:54;48.90;;;23.70;;
27746;SDS011;15138;51.012;4.692;2024-03-22T02:24:22;46.30;;;23.90;;
27746;SDS011;15138;51.012;4.692;2024-03-22T02:26:49;38.63;;;21.25;;
27746;SDS011;15138;51.012;4.692;2024-03-22T02:29:16;34.83;;;19.88;;
27746;SDS011;15138;51.012;4.692;2024-03-22T02:31:43;43.35;;;24.33;;
27746;SDS011;15138;51.012;4.692;2024-03-22T02:34:10;43.47;;;24.55;;
27746;SDS011;15138;51.012;4.692;2024-03-22T02:36:37;43.55;;;24.38;;
27746;SDS011;15138;51.012;4.692;2024-03-22T02:39:04;45.95;;;23.42;;
27746;SDS011;15138;51.012;4.692;2024-03-22T02:41:32;44.40;;;24.77;;
27746;SDS011;15138;51.012;4.692;2024-03-22T02:43:59;48.38;;;24.63;;
27746;SDS011;15138;51.012;4.692;2024-03-22T02:46:26;34.92;;;20.33;;
27746;SDS011;15138;51.012;4.692;2024-03-22T02:48:53;48.67;;;24.25;;
27746;SDS011;15138;51.012;4.692;2024-03-22T02:51:19;44.75;;;23.65;;
27746;SDS011;15138;51.012;4.692;2024-03-22T02:53:47;43.60;;;24.33;;
27746;SDS011;15138;51.012;4.692;2024-03-22T02:56:14;45.33;;;24.40;;
27746;SDS011;15138;51.012;4.692;2024-03-22T02:58:42;45.88;;;23.25;;
27746;SDS011;15138;51.012;4.692;2024-03-22T03:01:09;42.38;;;23.45;;
27746;SDS011;15138;51.012;4.692;2024-03-22T03:03:36;40.60;;;22.60;;
27746;SDS011;15138;51.012;4.692;2024-03-22T03:06:03;43.75;;;22.00;;
27746;SDS011;15138;51.012;4.692;2024-03-22T03:08:30;37.55;;;19.95;;
27746;SDS011;15138;51.012;4.692;2024-03-22T03:10:57;32.40;;;18.50;;
27746;SDS011;15138;51.012;4.692;2024-03-22T03:13:24;41.80;;;22.92;;
27746;SDS011;15138;51.012;4.692;2024-03-22T03:15:52;40.08;;;22.73;;
27746;SDS011;15138;51.012;4.692;2024-03-22T03:18:20;37.72;;;21.02;;
27746;SDS011;15138;51.012;4.692;2024-03-22T03:20:46;33.65;;;17.83;;
27746;SDS011;15138;51.012;4.692;2024-03-22T03:23:14;42.28;;;21.58;;
27746;SDS011;15138;51.012;4.692;2024-03-22T03:25:40;33.53;;;16.92;;
27746;SDS011;15138;51.012;4.692;2024-03-22T03:28:07;38.10;;;21.58;;
27746;SDS011;15138;51.012;4.692;2024-03-22T03:30:34;37.22;;;20.25;;
27746;SDS011;15138;51.012;4.692;2024-03-22T03:33:03;36.97;;;20.20;;
27746;SDS011;15138;51.012;4.692;2024-03-22T03:35:29;38.63;;;21.38;;
27746;SDS011;15138;51.012;4.692;2024-03-22T03:37:57;34.38;;;20.17;;
27746;SDS011;15138;51.012;4.692;2024-03-22T03:40:23;36.78;;;19.85;;
27746;SDS011;15138;51.012;4.692;2024-03-22T03:42:52;38.85;;;21.85;;
27746;SDS011;15138;51.012;4.692;2024-03-22T03:45:19;36.33;;;18.45;;
27746;SDS011;15138;51.012;4.692;2024-03-22T03:47:46;37.28;;;18.27;;
27746;SDS011;15138;51.012;4.692;2024-03-22T03:50:14;41.45;;;20.17;;
27746;SDS011;15138;51.012;4.692;2024-03-22T03:52:42;33.58;;;19.17;;
27746;SDS011;15138;51.012;4.692;2024-03-22T03:55:08;36.63;;;17.83;;
27746;SDS011;15138;51.012;4.692;2024-03-22T03:57:36;31.67;;;17.15;;
27746;SDS011;15138;51.012;4.692;2024-03-22T04:00:02;33.00;;;17.83;;
27746;SDS011;15138;51.012;4.692;2024-03-22T04:02:30;34.90;;;18.10;;
27746;SDS011;15138;51.012;4.692;2024-03-22T04:04:56;36.70;;;18.55;;
27746;SDS011;15138;51.012;4.692;2024-03-22T04:07:25;36.60;;;19.10;;
27746;SDS011;15138;51.012;4.692;2024-03-22T04:09:51;37.13;;;17.83;;
27746;SDS011;15138;51.012;4.692;2024-03-22T04:12:19;37.53;;;20.52;;
27746;SDS011;15138;51.012;4.692;2024-03-22T04:14:45;34.63;;;16.35;;
27746;SDS011;15138;51.012;4.692;2024-03-22T04:17:13;37.35;;;19.67;;
27746;SDS011;15138;51.012;4.692;2024-03-22T04:19:39;38.95;;;19.08;;
27746;SDS011;15138;51.012;4.692;2024-03-22T04:22:07;31.38;;;16.90;;
27746;SDS011;15138;51.012;4.692;2024-03-22T04:24:34;37.63;;;18.75;;
27746;SDS011;15138;51.012;4.692;2024-03-22T04:27:02;35.20;;;18.70;;
27746;SDS011;15138;51.012;4.692;2024-03-22T04:29:29;33.35;;;17.75;;
27746;SDS011;15138;51.012;4.692;2024-03-22T04:31:56;30.60;;;17.13;;
27746;SDS011;15138;51.012;4.692;2024-03-22T04:34:23;34.97;;;20.33;;
27746;SDS011;15138;51.012;4.692;2024-03-22T04:36:50;36.83;;;19.13;;
27746;SDS011;15138;51.012;4.692;2024-03-22T04:39:19;25.95;;;14.15;;
27746;SDS011;15138;51.012;4.692;2024-03-22T04:41:47;36.05;;;16.27;;
27746;SDS011;15138;51.012;4.692;2024-03-22T04:44:15;32.05;;;18.17;;
27746;SDS011;15138;51.012;4.692;2024-03-22T04:46:42;34.95;;;18.90;;
27746;SDS011;15138;51.012;4.692;2024-03-22T04:49:09;38.70;;;19.38;;
27746;SDS011;15138;51.012;4.692;2024-03-22T04:51:37;29.05;;;15.48;;
27746;SDS011;15138;51.012;4.692;2024-03-22T04:54:04;32.30;;;17.00;;
27746;SDS011;15138;51.012;4.692;2024-03-22T04:56:31;30.13;;;15.98;;
27746;SDS011;15138;51.012;4.692;2024-03-22T04:58:59;30.77;;;14.25;;
27746;SDS011;15138;51.012;4.692;2024-03-22T05:01:26;27.30;;;14.73;;
27746;SDS011;15138;51.012;4.692;2024-03-22T05:03:53;29.40;;;15.60;;
27746;SDS011;15138;51.012;4.692;2024-03-22T05:06:21;30.65;;;17.63;;
27746;SDS011;15138;51.012;4.692;2024-03-22T05:08:47;33.13;;;15.88;;
27746;SDS011;15138;51.012;4.692;2024-03-22T05:11:15;31.40;;;16.80;;
27746;SDS011;15138;51.012;4.692;2024-03-22T05:13:41;30.98;;;16.30;;
27746;SDS011;15138;51.012;4.692;2024-03-22T05:16:10;30.30;;;15.05;;
27746;SDS011;15138;51.012;4.692;2024-03-22T05:18:37;31.95;;;18.75;;
27746;SDS011;15138;51.012;4.692;2024-03-22T05:21:05;33.83;;;18.52;;
27746;SDS011;15138;51.012;4.692;2024-03-22T05:23:31;32.97;;;16.35;;
27746;SDS011;15138;51.012;4.692;2024-03-22T05:25:59;34.42;;;17.70;;
27746;SDS011;15138;51.012;4.692;2024-03-22T05:28:25;24.70;;;13.00;;
27746;SDS011;15138;51.012;4.692;2024-03-22T05:30:53;32.60;;;15.52;;
27746;SDS011;15138;51.012;4.692;2024-03-22T05:33:21;31.63;;;15.25;;
27746;SDS011;15138;51.012;4.692;2024-03-22T05:35:48;22.92;;;13.15;;
27746;SDS011;15138;51.012;4.692;2024-03-22T05:38:14;37.17;;;18.65;;
27746;SDS011;15138;51.012;4.692;2024-03-22T05:40:42;36.55;;;18.40;;
27746;SDS011;15138;51.012;4.692;2024-03-22T05:43:10;26.67;;;14.55;;
27746;SDS011;15138;51.012;4.692;2024-03-22T05:45:38;35.78;;;18.70;;
27746;SDS011;15138;51.012;4.692;2024-03-22T05:48:04;31.55;;;17.27;;
27746;SDS011;15138;51.012;4.692;2024-03-22T05:50:33;32.35;;;17.95;;
27746;SDS011;15138;51.012;4.692;2024-03-22T05:52:59;31.50;;;15.90;;
27746;SDS011;15138;51.012;4.692;2024-03-22T05:55:27;34.08;;;17.85;;
27746;SDS011;15138;51.012;4.692;2024-03-22T05:57:56;32.30;;;15.93;;
27746;SDS011;15138;51.012;4.692;2024-03-22T06:00:24;33.58;;;18.13;;
27746;SDS011;15138;51.012;4.692;2024-03-22T06:02:51;31.98;;;17.63;;
27746;SDS011;15138;51.012;4.692;2024-03-22T06:05:18;35.13;;;17.85;;
27746;SDS011;15138;51.012;4.692;2024-03-22T06:07:46;36.78;;;18.15;;
27746;SDS011;15138;51.012;4.692;2024-03-22T06:10:14;32.15;;;17.73;;
27746;SDS011;15138;51.012;4.692;2024-03-22T06:12:40;28.75;;;14.18;;
27746;SDS011;15138;51.012;4.692;2024-03-22T06:15:09;36.92;;;19.00;;
27746;SDS011;15138;51.012;4.692;2024-03-22T06:17:36;32.60;;;15.73;;
27746;SDS011;15138;51.012;4.692;2024-03-22T06:20:04;30.23;;;17.23;;
27746;SDS011;15138;51.012;4.692;2024-03-22T06:22:30;25.00;;;13.30;;
27746;SDS011;15138;51.012;4.692;2024-03-22T06:24:59;33.33;;;20.33;;
27746;SDS011;15138;51.012;4.692;2024-03-22T06:27:26;34.63;;;18.10;;
27746;SDS011;15138;51.012;4.692;2024-03-22T06:29:53;29.42;;;15.90;;
27746;SDS011;15138;51.012;4.692;2024-03-22T06:32:20;31.92;;;17.00;;
27746;SDS011;15138;51.012;4.692;2024-03-22T06:34:47;35.35;;;20.60;;
27746;SDS011;15138;51.012;4.692;2024-03-22T06:37:14;36.58;;;21.13;;
27746;SDS011;15138;51.012;4.692;2024-03-22T06:39:41;34.35;;;18.10;;
27746;SDS011;15138;51.012;4.692;2024-03-22T06:42:09;32.60;;;19.30;;
27746;SDS011;15138;51.012;4.692;2024-03-22T06:44:36;26.25;;;15.07;;
27746;SDS011;15138;51.012;4.692;2024-03-22T06:47:03;35.13;;;17.88;;
27746;SDS011;15138;51.012;4.692;2024-03-22T06:49:30;33.20;;;18.58;;
27746;SDS011;15138;51.012;4.692;2024-03-22T06:51:56;22.15;;;10.90;;
27746;SDS011;15138;51.012;4.692;2024-03-22T06:54:24;29.15;;;15.95;;
27746;SDS011;15138;51.012;4.692;2024-03-22T06:56:51;17.48;;;8.35;;
27746;SDS011;15138;51.012;4.692;2024-03-22T06:59:20;23.02;;;12.75;;
27746;SDS011;15138;51.012;4.692;2024-03-22T07:01:47;25.77;;;13.57;;
27746;SDS011;15138;51.012;4.692;2024-03-22T07:04:14;27.80;;;14.90;;
27746;SDS011;15138;51.012;4.692;2024-03-22T07:06:41;28.85;;;17.75;;
27746;SDS011;15138;51.012;4.692;2024-03-22T07:09:08;28.27;;;14.18;;
27746;SDS011;15138;51.012;4.692;2024-03-22T07:11:34;29.63;;;14.95;;
27746;SDS011;15138;51.012;4.692;2024-03-22T07:14:02;21.10;;;10.77;;
27746;SDS011;15138;51.012;4.692;2024-03-22T07:16:30;27.98;;;15.07;;
27746;SDS011;15138;51.012;4.692;2024-03-22T07:18:57;24.08;;;14.95;;
27746;SDS011;15138;51.012;4.692;2024-03-22T07:21:24;18.70;;;11.00;;
27746;SDS011;15138;51.012;4.692;2024-03-22T07:23:51;24.38;;;15.15;;
27746;SDS011;15138;51.012;4.692;2024-03-22T07:26:17;22.30;;;10.88;;
27746;SDS011;15138;51.012;4.692;2024-03-22T07:28:45;20.55;;;11.73;;
27746;SDS011;15138;51.012;4.692;2024-03-22T07:31:11;23.38;;;13.10;;
27746;SDS011;15138;51.012;4.692;2024-03-22T07:33:40;22.35;;;13.02;;
27746;SDS011;15138;51.012;4.692;2024-03-22T07:36:07;18.98;;;11.15;;
27746;SDS011;15138;51.012;4.692;2024-03-22T07:38:34;19.90;;;12.38;;
27746;SDS011;15138;51.012;4.692;2024-03-22T07:41:01;19.75;;;10.18;;
27746;SDS011;15138;51.012;4.692;2024-03-22T07:43:30;19.58;;;11.35;;
27746;SDS011;15138;51.012;4.692;2024-03-22T07:45:56;22.35;;;14.60;;
27746;SDS011;15138;51.012;4.692;2024-03-22T07:48:23;17.02;;;9.50;;
27746;SDS011;15138;51.012;4.692;2024-03-22T07:50:56;23.63;;;13.05;;
27746;SDS011;15138;51.012;4.692;2024-03-22T07:53:24;16.15;;;9.43;;
27746;SDS011;15138;51.012;4.692;2024-03-22T07:55:50;19.02;;;9.80;;
27746;SDS011;15138;51.012;4.692;2024-03-22T07:58:18;15.38;;;9.63;;
27746;SDS011;15138;51.012;4.692;2024-03-22T08:00:44;18.75;;;11.63;;
27746;SDS011;15138;51.012;4.692;2024-03-22T08:03:13;17.17;;;9.90;;
27746;SDS011;15138;51.012;4.692;2024-03-22T08:05:40;14.38;;;8.85;;
27746;SDS011;15138;51.012;4.692;2024-03-22T08:08:09;11.10;;;6.57;;
27746;SDS011;15138;51.012;4.692;2024-03-22T08:10:36;21.10;;;10.25;;
27746;SDS011;15138;51.012;4.692;2024-03-22T08:13:03;15.63;;;8.45;;
27746;SDS011;15138;51.012;4.692;2024-03-22T08:15:30;15.95;;;11.13;;
27746;SDS011;15138;51.012;4.692;2024-03-22T08:17:57;13.55;;;8.57;;
27746;SDS011;15138;51.012;4.692;2024-03-22T08:20:24;16.65;;;9.95;;
27746;SDS011;15138;51.012;4.692;2024-03-22T08:22:51;16.13;;;9.77;;
27746;SDS011;15138;51.012;4.692;2024-03-22T08:25:19;16.92;;;10.18;;
27746;SDS011;15138;51.012;4.692;2024-03-22T08:27:47;11.95;;;7.93;;
27746;SDS011;15138;51.012;4.692;2024-03-22T08:30:14;13.00;;;8.65;;
27746;SDS011;15138;51.012;4.692;2024-03-22T08:32:41;15.55;;;9.13;;
27746;SDS011;15138;51.012;4.692;2024-03-22T08:35:08;16.98;;;10.35;;
27746;SDS011;15138;51.012;4.692;2024-03-22T08:37:35;13.77;;;8.45;;
27746;SDS011;15138;51.012;4.692;2024-03-22T08:40:02;14.60;;;8.85;;
27746;SDS011;15138;51.012;4.692;2024-03-22T08:42:31;16.25;;;8.95;;
27746;SDS011;15138;51.012;4.692;2024-03-22T08:44:57;17.92;;;9.95;;
27746;SDS011;15138;51.012;4.692;2024-03-22T08:47:25;15.18;;;8.07;;
27746;SDS011;15138;51.012;4.692;2024-03-22T08:49:51;14.90;;;9.95;;
27746;SDS011;15138;51.012;4.692;2024-03-22T08:52:19;18.52;;;9.60;;
27746;SDS011;15138;51.012;4.692;2024-03-22T08:54:46;14.65;;;8.48;;
27746;SDS011;15138;51.012;4.692;2024-03-22T08:57:13;14.18;;;8.43;;
27746;SDS011;15138;51.012;4.692;2024-03-22T08:59:41;14.10;;;7.05;;
27746;SDS011;15138;51.012;4.692;2024-03-22T09:02:08;9.38;;;5.13;;
27746;SDS011;15138;51.012;4.692;2024-03-22T09:04:35;12.75;;;7.22;;
27746;SDS011;15138;51.012;4.692;2024-03-22T09:07:02;13.38;;;8.48;;
27746;SDS011;15138;51.012;4.692;2024-03-22T09:09:29;13.48;;;8.85;;
27746;SDS011;15138;51.012;4.692;2024-03-22T09:11:57;12.13;;;7.85;;
27746;SDS011;15138;51.012;4.692;2024-03-22T09:14:23;15.23;;;8.45;;
27746;SDS011;15138;51.012;4.692;2024-03-22T09:16:52;20.77;;;9.25;;
27746;SDS011;15138;51.012;4.692;2024-03-22T09:19:19;15.50;;;9.32;;
27746;SDS011;15138;51.012;4.692;2024-03-22T09:21:46;14.13;;;9.18;;
27746;SDS011;15138;51.012;4.692;2024-03-22T09:24:13;18.60;;;8.23;;
27746;SDS011;15138;51.012;4.692;2024-03-22T09:26:40;15.70;;;9.63;;
27746;SDS011;15138;51.012;4.692;2024-03-22T09:29:08;15.75;;;8.30;;
27746;SDS011;15138;51.012;4.692;2024-03-22T09:31:35;15.70;;;8.57;;
27746;SDS011;15138;51.012;4.692;2024-03-22T09:34:03;16.40;;;7.85;;
27746;SDS011;15138;51.012;4.692;2024-03-22T09:36:30;15.18;;;8.00;;
27746;SDS011;15138;51.012;4.692;2024-03-22T09:39:00;21.40;;;9.38;;
27746;SDS011;15138;51.012;4.692;2024-03-22T09:41:28;15.32;;;10.30;;
27746;SDS011;15138;51.012;4.692;2024-03-22T09:43:57;16.67;;;9.98;;
27746;SDS011;15138;51.012;4.692;2024-03-22T09:46:25;18.33;;;10.48;;
27746;SDS011;15138;51.012;4.692;2024-03-22T09:48:52;19.92;;;9.63;;
27746;SDS011;15138;51.012;4.692;2024-03-22T09:51:22;19.23;;;10.85;;
27746;SDS011;15138;51.012;4.692;2024-03-22T09:53:49;16.15;;;9.82;;
27746;SDS011;15138;51.012;4.692;2024-03-22T09:56:18;17.88;;;9.13;;
27746;SDS011;15138;51.012;4.692;2024-03-22T09:58:46;23.90;;;11.70;;
27746;SDS011;15138;51.012;4.692;2024-03-22T10:01:14;11.25;;;6.65;;
27746;SDS011;15138;51.012;4.692;2024-03-22T10:03:41;19.15;;;8.68;;
27746;SDS011;15138;51.012;4.692;2024-03-22T10:06:09;19.35;;;9.07;;
27746;SDS011;15138;51.012;4.692;2024-03-22T10:08:37;19.58;;;10.10;;
27746;SDS011;15138;51.012;4.692;2024-03-22T10:11:05;16.73;;;9.23;;
27746;SDS011;15138;51.012;4.692;2024-03-22T10:13:31;17.42;;;8.80;;
27746;SDS011;15138;51.012;4.692;2024-03-22T10:15:59;22.13;;;11.85;;
27746;SDS011;15138;51.012;4.692;2024-03-22T10:18:26;23.20;;;10.48;;
27746;SDS011;15138;51.012;4.692;2024-03-22T10:21:03;22.73;;;8.95;;
27746;SDS011;15138;51.012;4.692;2024-03-22T10:23:29;20.77;;;12.15;;
27746;SDS011;15138;51.012;4.692;2024-03-22T10:25:58;17.30;;;9.73;;
27746;SDS011;15138;51.012;4.692;2024-03-22T10:28:25;15.50;;;8.45;;
27746;SDS011;15138;51.012;4.692;2024-03-22T10:30:52;22.27;;;12.40;;
27746;SDS011;15138;51.012;4.692;2024-03-22T10:33:19;23.27;;;11.32;;
27746;SDS011;15138;51.012;4.692;2024-03-22T10:35:49;21.38;;;11.70;;
27746;SDS011;15138;51.012;4.692;2024-03-22T10:38:18;15.98;;;8.93;;
27746;SDS011;15138;51.012;4.692;2024-03-22T10:40:46;22.02;;;10.57;;
27746;SDS011;15138;51.012;4.692;2024-03-22T10:43:14;20.60;;;9.98;;
27746;SDS011;15138;51.012;4.692;2024-03-22T10:45:41;17.17;;;10.07;;
27746;SDS011;15138;51.012;4.692;2024-03-22T10:48:09;21.27;;;12.02;;
27746;SDS011;15138;51.012;4.692;2024-03-22T10:50:38;20.05;;;10.60;;
27746;SDS011;15138;51.012;4.692;2024-03-22T10:53:06;21.05;;;11.35;;
27746;SDS011;15138;51.012;4.692;2024-03-22T10:55:35;20.95;;;10.98;;
27746;SDS011;15138;51.012;4.692;2024-03-22T10:58:03;18.38;;;9.15;;
27746;SDS011;15138;51.012;4.692;2024-03-22T11:00:33;17.33;;;11.35;;
27746;SDS011;15138;51.012;4.692;2024-03-22T11:03:01;25.20;;;13.25;;
27746;SDS011;15138;51.012;4.692;2024-03-22T11:05:29;23.20;;;11.60;;
27746;SDS011;15138;51.012;4.692;2024-03-22T11:07:59;16.75;;;8.48;;
27746;SDS011;15138;51.012;4.692;2024-03-22T11:10:28;27.50;;;14.65;;
27746;SDS011;15138;51.012;4.692;2024-03-22T11:12:55;20.58;;;10.20;;
27746;SDS011;15138;51.012;4.692;2024-03-22T11:15:23;22.83;;;13.57;;
27746;SDS011;15138;51.012;4.692;2024-03-22T11:17:51;22.75;;;10.07;;
27746;SDS011;15138;51.012;4.692;2024-03-22T11:20:18;21.95;;;13.38;;
27746;SDS011;15138;51.012;4.692;2024-03-22T11:22:44;15.98;;;9.43;;
27746;SDS011;15138;51.012;4.692;2024-03-22T11:25:12;19.52;;;10.60;;
27746;SDS011;15138;51.012;4.692;2024-03-22T11:27:39;23.00;;;11.25;;
27746;SDS011;15138;51.012;4.692;2024-03-22T11:30:07;18.20;;;9.85;;
27746;SDS011;15138;51.012;4.692;2024-03-22T11:32:33;20.42;;;9.68;;
27746;SDS011;15138;51.012;4.692;2024-03-22T11:35:09;16.88;;;9.63;;
27746;SDS011;15138;51.012;4.692;2024-03-22T11:37:35;16.60;;;8.75;;
27746;SDS011;15138;51.012;4.692;2024-03-22T11:40:03;17.48;;;9.18;;
27746;SDS011;15138;51.012;4.692;2024-03-22T11:42:31;17.35;;;10.40;;
27746;SDS011;15138;51.012;4.692;2024-03-22T11:44:59;23.45;;;9.25;;
27746;SDS011;15138;51.012;4.692;2024-03-22T11:47:26;20.05;;;9.18;;
27746;SDS011;15138;51.012;4.692;2024-03-22T11:49:55;16.92;;;8.32;;
27746;SDS011;15138;51.012;4.692;2024-03-22T11:52:25;18.70;;;8.30;;
27746;SDS011;15138;51.012;4.692;2024-03-22T11:54:52;15.63;;;9.13;;
27746;SDS011;15138;51.012;4.692;2024-03-22T11:57:20;20.30;;;9.50;;
27746;SDS011;15138;51.012;4.692;2024-03-22T11:59:47;19.15;;;8.38;;
27746;SDS011;15138;51.012;4.692;2024-03-22T12:02:14;12.18;;;5.55;;
27746;SDS011;15138;51.012;4.692;2024-03-22T12:04:41;13.43;;;7.22;;
27746;SDS011;15138;51.012;4.692;2024-03-22T12:07:10;10.18;;;5.90;;
27746;SDS011;15138;51.012;4.692;2024-03-22T12:09:38;15.15;;;7.55;;
27746;SDS011;15138;51.012;4.692;2024-03-22T12:12:07;17.02;;;8.25;;
27746;SDS011;15138;51.012;4.692;2024-03-22T12:14:34;11.77;;;6.32;;
27746;SDS011;15138;51.012;4.692;2024-03-22T12:17:02;15.35;;;8.05;;
27746;SDS011;15138;51.012;4.692;2024-03-22T12:19:28;16.65;;;8.70;;
27746;SDS011;15138;51.012;4.692;2024-03-22T12:21:56;15.73;;;6.25;;
27746;SDS011;15138;51.012;4.692;2024-03-22T12:24:22;18.50;;;7.40;;
27746;SDS011;15138;51.012;4.692;2024-03-22T12:26:51;22.15;;;7.15;;
27746;SDS011;15138;51.012;4.692;2024-03-22T12:29:19;17.83;;;7.50;;
27746;SDS011;15138;51.012;4.692;2024-03-22T12:31:46;16.05;;;7.50;;
27746;SDS011;15138;51.012;4.692;2024-03-22T12:34:13;12.93;;;6.78;;
27746;SDS011;15138;51.012;4.692;2024-03-22T12:36:40;13.40;;;6.47;;
27746;SDS011;15138;51.012;4.692;2024-03-22T12:39:07;14.95;;;6.75;;
27746;SDS011;15138;51.012;4.692;2024-03-22T12:41:34;16.63;;;7.75;;
27746;SDS011;15138;51.012;4.692;2024-03-22T12:44:02;15.30;;;8.85;;
27746;SDS011;15138;51.012;4.692;2024-03-22T12:46:30;16.95;;;7.68;;
27746;SDS011;15138;51.012;4.692;2024-03-22T12:48:56;18.00;;;8.05;;
27746;SDS011;15138;51.012;4.692;2024-03-22T12:51:24;15.38;;;8.73;;
27746;SDS011;15138;51.012;4.692;2024-03-22T12:53:51;20.13;;;7.28;;
27746;SDS011;15138;51.012;4.692;2024-03-22T12:56:18;19.27;;;8.38;;
27746;SDS011;15138;51.012;4.692;2024-03-22T12:58:45;14.40;;;6.35;;
27746;SDS011;15138;51.012;4.692;2024-03-22T13:01:14;20.20;;;8.93;;
27746;SDS011;15138;51.012;4.692;2024-03-22T13:03:40;15.65;;;7.43;;
27746;SDS011;15138;51.012;4.692;2024-03-22T13:06:08;16.38;;;8.35;;
27746;SDS011;15138;51.012;4.692;2024-03-22T13:08:34;19.25;;;8.60;;
27746;SDS011;15138;51.012;4.692;2024-03-22T13:11:02;19.63;;;9.13;;
27746;SDS011;15138;51.012;4.692;2024-03-22T13:13:28;10.65;;;6.22;;
27746;SDS011;15138;51.012;4.692;2024-03-22T13:15:56;18.45;;;7.80;;
27746;SDS011;15138;51.012;4.692;2024-03-22T13:18:24;16.00;;;7.15;;
27746;SDS011;15138;51.012;4.692;2024-03-22T13:20:51;17.95;;;7.28;;
27746;SDS011;15138;51.012;4.692;2024-03-22T13:23:18;17.60;;;8.05;;
27746;SDS011;15138;51.012;4.692;2024-03-22T13:25:46;15.68;;;8.07;;
27746;SDS011;15138;51.012;4.692;2024-03-22T13:28:12;14.85;;;7.28;;
27746;SDS011;15138;51.012;4.692;2024-03-22T13:30:40;15.45;;;6.82;;
27746;SDS011;15138;51.012;4.692;2024-03-22T13:33:07;17.40;;;6.95;;
27746;SDS011;15138;51.012;4.692;2024-03-22T13:35:36;14.05;;;6.07;;
27746;SDS011;15138;51.012;4.692;2024-03-22T13:38:02;15.50;;;6.65;;
27746;SDS011;15138;51.012;4.692;2024-03-22T13:40:30;10.07;;;5.53;;
27746;SDS011;15138;51.012;4.692;2024-03-22T13:42:57;7.97;;;5.00;;
27746;SDS011;15138;51.012;4.692;2024-03-22T13:45:24;5.35;;;2.60;;
27746;SDS011;15138;51.012;4.692;2024-03-22T13:47:51;14.10;;;5.88;;
27746;SDS011;15138;51.012;4.692;2024-03-22T13:50:18;8.90;;;4.97;;
27746;SDS011;15138;51.012;4.692;2024-03-22T13:52:49;12.25;;;6.10;;
27746;SDS011;15138;51.012;4.692;2024-03-22T13:55:15;17.67;;;7.18;;
27746;SDS011;15138;51.012;4.692;2024-03-22T13:57:43;15.43;;;6.72;;
27746;SDS011;15138;51.012;4.692;2024-03-22T14:00:09;14.52;;;5.75;;
27746;SDS011;15138;51.012;4.692;2024-03-22T14:02:39;12.00;;;5.85;;
27746;SDS011;15138;51.012;4.692;2024-03-22T14:05:06;18.42;;;6.85;;
27746;SDS011;15138;51.012;4.692;2024-03-22T14:07:34;12.80;;;5.53;;
27746;SDS011;15138;51.012;4.692;2024-03-22T14:10:07;14.98;;;6.55;;
27746;SDS011;15138;51.012;4.692;2024-03-22T14:12:35;15.10;;;6.13;;
27746;SDS011;15138;51.012;4.692;2024-03-22T14:15:01;11.50;;;5.75;;
27746;SDS011;15138;51.012;4.692;2024-03-22T14:17:28;13.32;;;5.20;;
27746;SDS011;15138;51.012;4.692;2024-03-22T14:19:55;12.77;;;6.20;;
27746;SDS011;15138;51.012;4.692;2024-03-22T14:22:22;19.88;;;7.25;;
27746;SDS011;15138;51.012;4.692;2024-03-22T14:24:49;14.50;;;6.32;;
27746;SDS011;15138;51.012;4.692;2024-03-22T14:27:17;12.18;;;5.30;;